Map

Track Data

SID SEASON NUMBER BASIN SUBBASIN NAME ISO_TIME NATURE LAT LON WMO_WIND WMO_PRES WMO_AGENCY TRACK_TYPE DIST2LAND LANDFALL IFLAG USA_AGENCY USA_ATCF_ID USA_LAT USA_LON USA_RECORD USA_STATUS USA_WIND USA_PRES USA_SSHS USA_R34_NE USA_R34_SE USA_R34_SW USA_R34_NW USA_R50_NE USA_R50_SE USA_R50_SW USA_R50_NW USA_R64_NE USA_R64_SE USA_R64_SW USA_R64_NW USA_POCI USA_ROCI USA_RMW USA_EYE TOKYO_LAT TOKYO_LON TOKYO_GRADE TOKYO_WIND TOKYO_PRES TOKYO_R50_DIR TOKYO_R50_LONG TOKYO_R50_SHORT TOKYO_R30_DIR TOKYO_R30_LONG TOKYO_R30_SHORT TOKYO_LAND CMA_LAT CMA_LON CMA_CAT CMA_WIND CMA_PRES HKO_LAT HKO_LON HKO_CAT HKO_WIND HKO_PRES NEWDELHI_LAT NEWDELHI_LON NEWDELHI_GRADE NEWDELHI_WIND NEWDELHI_PRES NEWDELHI_CI NEWDELHI_DP NEWDELHI_POCI REUNION_LAT REUNION_LON REUNION_TYPE REUNION_WIND REUNION_PRES REUNION_TNUM REUNION_CI REUNION_RMW REUNION_R34_NE REUNION_R34_SE REUNION_R34_SW REUNION_R34_NW REUNION_R50_NE REUNION_R50_SE REUNION_R50_SW REUNION_R50_NW REUNION_R64_NE REUNION_R64_SE REUNION_R64_SW REUNION_R64_NW BOM_LAT BOM_LON BOM_TYPE BOM_WIND BOM_PRES BOM_TNUM BOM_CI BOM_RMW BOM_R34_NE BOM_R34_SE BOM_R34_SW BOM_R34_NW BOM_R50_NE BOM_R50_SE BOM_R50_SW BOM_R50_NW BOM_R64_NE BOM_R64_SE BOM_R64_SW BOM_R64_NW BOM_ROCI BOM_POCI BOM_EYE BOM_POS_METHOD BOM_PRES_METHOD NADI_LAT NADI_LON NADI_CAT NADI_WIND NADI_PRES WELLINGTON_LAT WELLINGTON_LON WELLINGTON_WIND WELLINGTON_PRES DS824_LAT DS824_LON DS824_STAGE DS824_WIND DS824_PRES TD9636_LAT TD9636_LON TD9636_STAGE TD9636_WIND TD9636_PRES TD9635_LAT TD9635_LON TD9635_WIND TD9635_PRES TD9635_ROCI NEUMANN_LAT NEUMANN_LON NEUMANN_CLASS NEUMANN_WIND NEUMANN_PRES MLC_LAT MLC_LON MLC_CLASS MLC_WIND MLC_PRES USA_GUST BOM_GUST BOM_GUST_PER REUNION_GUST REUNION_GUST_PER USA_SEAHGT USA_SEARAD_NE USA_SEARAD_SE USA_SEARAD_SW USA_SEARAD_NW STORM_SPEED STORM_DIR
1994287N14156 1994 102 WP MM TERESA 1994-10-14 00:00:00 NR 14.2000 156.400 main 1988 1969 O_____________ jtwc_wp WP341994 14.2000 156.400 15 -1 12 275
1994287N14156 1994 102 WP MM TERESA 1994-10-14 03:00:00 NR 14.2503 155.800 main 1979 1962 P_____________ WP341994 14.2503 155.800 15 -1 12 275
1994287N14156 1994 102 WP MM TERESA 1994-10-14 06:00:00 NR 14.3000 155.200 main 1962 1947 O_____________ jtwc_wp WP341994 14.3000 155.200 15 -1 12 275
1994287N14156 1994 102 WP MM TERESA 1994-10-14 09:00:00 NR 14.3498 154.600 main 1947 1946 P_____________ WP341994 14.3498 154.600 15 -1 12 275
1994287N14156 1994 102 WP MM TERESA 1994-10-14 12:00:00 NR 14.4000 154.000 main 1946 1935 O_____________ jtwc_wp WP341994 14.4000 154.000 15 -1 12 275
1994287N14156 1994 102 WP MM TERESA 1994-10-14 15:00:00 NR 14.4498 153.400 main 1935 1935 P_____________ WP341994 14.4498 153.400 15 -1 12 275
1994287N14156 1994 102 WP MM TERESA 1994-10-14 18:00:00 NR 14.5000 152.800 main 1938 1932 O_____________ jtwc_wp WP341994 14.5000 152.800 15 -1 12 275
1994287N14156 1994 102 WP MM TERESA 1994-10-14 21:00:00 NR 14.5498 152.200 main 1932 1927 P_____________ WP341994 14.5498 152.200 15 -1 12 275
1994287N14156 1994 102 WP MM TERESA 1994-10-15 00:00:00 NR 14.6000 151.600 main 1927 1912 O_____________ jtwc_wp WP341994 14.6000 151.600 15 -1 12 275
1994287N14156 1994 102 WP MM TERESA 1994-10-15 03:00:00 NR 14.6498 151.000 main 1912 1910 P_____________ WP341994 14.6498 151.000 17 -1 12 275
1994287N14156 1994 102 WP MM TERESA 1994-10-15 06:00:00 NR 14.7000 150.400 main 1910 1900 O_____________ jtwc_wp WP341994 14.7000 150.400 20 -1 12 275
1994287N14156 1994 102 WP MM TERESA 1994-10-15 09:00:00 NR 14.7498 149.800 main 1900 1900 P_____________ WP341994 14.7498 149.800 20 -1 12 275
1994287N14156 1994 102 WP MM TERESA 1994-10-15 12:00:00 NR 14.8000 149.200 main 1903 1897 O_____________ jtwc_wp WP341994 14.8000 149.200 20 -1 12 275
1994287N14156 1994 102 WP MM TERESA 1994-10-15 15:00:00 NR 14.8423 148.607 main 1897 1897 P_____________ WP341994 14.8423 148.607 20 -1 12 275
1994287N14156 1994 102 WP MM TERESA 1994-10-15 18:00:00 NR 14.9000 148.000 main 1905 1904 O_____________ jtwc_wp WP341994 14.9000 148.000 20 -1 12 277
1994287N14156 1994 102 WP MM TERESA 1994-10-15 21:00:00 NR 14.9923 147.365 main 1915 1915 P_____________ WP341994 14.9923 147.365 20 -1 11 289
1994287N14156 1994 102 WP MM TERESA 1994-10-16 00:00:00 TS 15.2571 146.900 1008 tokyo main 1949 1949 OOOO__________ jtwc_wp WP341994 15.1000 146.700 20 -1 15.9000 146.200 2 1008 0 0 0 14.5000 148.000 0 19 1006 16.0000 147.300 TD 25 1005 11 289
1994287N14156 1994 102 WP MM TERESA 1994-10-16 03:00:00 TS 15.3430 146.325 main 1949 1949 PPPP__________ WP341994 15.1999 146.007 22 -1 15.7348 145.862 2 1007 0 0 14.7452 147.190 0 19 1006 15.8354 146.560 TD 25 1005 12 276
1994287N14156 1994 102 WP MM TERESA 1994-10-16 06:00:00 TS 15.3923 145.669 1006 tokyo main 1962 1962 OOOO__________ jtwc_wp WP341994 15.3000 145.300 25 -1 15.6000 145.400 2 1006 0 0 0 15.0000 146.300 0 19 1006 15.7000 145.800 TD 25 1005 14 275
1994287N14156 1994 102 WP MM TERESA 1994-10-16 09:00:00 TS 15.4512 144.909 main 1980 1980 PPPP__________ WP341994 15.3998 144.600 25 -1 15.5202 144.737 2 1006 0 0 15.2652 145.293 0 19 1006 15.6198 145.008 TD 25 1005 15 275
1994287N14156 1994 102 WP MM TERESA 1994-10-16 12:00:00 TS 15.5250 144.100 1006 tokyo main 1990 1969 OOOO__________ jtwc_wp WP341994 15.5000 143.900 25 -1 15.5000 144.000 2 1006 0 0 0 15.5000 144.300 0 19 1006 15.6000 144.200 TD 25 1005 15 276
1994287N14156 1994 102 WP MM TERESA 1994-10-16 15:00:00 TS 15.6027 143.361 main 1969 1897 PPPP__________ WP341994 15.5998 143.200 25 -1 15.5120 143.372 2 1006 0 0 15.6718 143.477 0 19 1006 15.6273 143.393 TD 27 1002 14 277
1994287N14156 1994 102 WP MM TERESA 1994-10-16 18:00:00 TS 15.7000 142.625 1006 tokyo main 1886 1814 OOOO__________ jtwc_wp WP341994 15.7000 142.500 25 -1 15.6000 142.700 2 1006 0 0 0 15.8000 142.700 0 19 1006 15.7000 142.600 TD 30 1000 15 278
1994287N14156 1994 102 WP MM TERESA 1994-10-16 21:00:00 TS 15.8195 141.815 main 1804 1733 PPPP__________ WP341994 15.7998 141.800 27 -1 15.7855 141.835 2 1005 0 0 15.9003 141.797 0 19 1006 15.7923 141.828 TD 30 1000 15 279
1994287N14156 1994 102 WP MM TERESA 1994-10-17 00:00:00 TS 15.9500 141.050 1004 tokyo main 1735 1675 OOOO__________ jtwc_wp WP341994 15.9000 141.100 30 -1 16.0000 141.000 2 1004 0 0 0 16.0000 141.000 0 19 1006 15.9000 141.100 TD 30 1000 13 281
1994287N14156 1994 102 WP MM TERESA 1994-10-17 03:00:00 TS 16.0839 140.444 main 1664 1615 PPPP__________ WP341994 16.0073 140.393 32 -1 16.1719 140.412 2 1003 0 0 16.1641 140.535 0 24 1003 15.9922 140.435 TD 32 999 12 282
1994287N14156 1994 102 WP MM TERESA 1994-10-17 06:00:00 TS 16.2000 139.875 1002 tokyo main 1615 1556 OOOO__________ jtwc_wp WP341994 16.1000 139.700 35 0 16.3000 139.900 2 1002 0 0 0 16.3000 140.100 1 29 1000 16.1000 139.800 TS 35 998 12 280
1994287N14156 1994 102 WP MM TERESA 1994-10-17 09:00:00 TS 16.2831 139.214 main 1546 1484 PPPP__________ WP341994 16.1647 139.042 37 -1 16.3799 139.307 2 1001 0 0 16.3230 139.357 1 33 999 16.2648 139.150 TS 37 996 13 276
1994287N14156 1994 102 WP MM TERESA 1994-10-17 12:00:00 TS 16.3250 138.550 35 1000 tokyo main 1484 1423 OOOO__________ jtwc_wp WP341994 16.2000 138.400 40 0 16.4000 138.700 3 35 1000 0 9 60 60 0 16.3000 138.600 2 38 998 16.4000 138.500 TS 40 994 12 273
1994287N14156 1994 102 WP MM TERESA 1994-10-17 15:00:00 TS 16.3477 137.961 main 1423 1362 PPPP__________ WP341994 16.2223 137.750 42 -1 16.3795 138.130 3 37 998 0 9 70 70 16.3441 138.115 2 38 996 16.4448 137.850 TS 40 994 12 269
1994287N14156 1994 102 WP MM TERESA 1994-10-17 18:00:00 TS 16.3000 137.350 40 996 tokyo main 1362 1287 OOOO__________ jtwc_wp WP341994 16.2000 137.100 45 0 16.3000 137.500 3 40 996 0 9 80 80 0 16.3000 137.600 2 38 995 16.4000 137.200 TS 40 994 13 261
1994287N14156 1994 102 WP MM TERESA 1994-10-17 21:00:00 TS 16.1438 136.629 main 1274 1199 PPPP__________ WP341994 16.1147 136.457 47 -1 16.1726 136.722 3 42 995 0 9 90 90 16.0154 136.779 2 38 994 16.2722 136.557 TS 40 994 15 256
1994287N14156 1994 102 WP MM TERESA 1994-10-18 00:00:00 TS 15.9500 135.875 45 994 tokyo main 1199 1121 OOOO__________ jtwc_wp WP341994 16.0000 135.800 50 0 16.0000 135.900 3 45 994 0 9 100 100 0 15.7000 135.900 2 38 994 16.1000 135.900 TS 40 994 15 256
1994287N14156 1994 102 WP MM TERESA 1994-10-18 03:00:00 TS 15.7991 135.161 main 1121 1047 PPPP__________ WP341994 15.8923 135.115 50 -1 15.7997 135.135 3 47 992 0 9 110 110 15.5545 135.185 2 43 992 15.9498 135.208 TS 40 994 14 259
1994287N14156 1994 102 WP MM TERESA 1994-10-18 06:00:00 TS 15.6750 134.450 50 990 tokyo main 1047 973 OOOO__________ jtwc_wp WP341994 15.8000 134.400 50 0 15.6000 134.400 4 50 990 0 9 120 120 0 15.5000 134.500 3 48 990 15.8000 134.500 TS 40 994 14 261
1994287N14156 1994 102 WP MM TERESA 1994-10-18 09:00:00 TS 15.5742 133.718 main 963 890 PPPP__________ WP341994 15.7424 133.650 52 -1 15.4273 133.678 4 50 990 0 9 120 120 15.4925 133.735 3 48 990 15.6347 133.807 TS 42 992 14 263
1994287N14156 1994 102 WP MM TERESA 1994-10-18 12:00:00 TS 15.5000 133.000 50 990 tokyo main 890 826 OOOO__________ jtwc_wp WP341994 15.7000 132.900 55 0 15.3000 133.000 4 50 990 0 9 120 120 0 15.5000 133.000 3 48 990 15.5000 133.100 TS 45 990 13 264
1994287N14156 1994 102 WP MM TERESA 1994-10-18 15:00:00 TS 15.4328 132.337 main 817 759 PPPP__________ WP341994 15.6422 132.192 55 -1 15.2120 132.407 4 50 990 0 9 120 120 15.4494 132.400 3 48 987 15.4274 132.350 TS 47 987 13 266
1994287N14156 1994 102 WP MM TERESA 1994-10-18 18:00:00 TS 15.4000 131.675 50 990 tokyo main 759 693 OOOO__________ jtwc_wp WP341994 15.6000 131.500 55 0 15.2000 131.800 4 50 990 0 9 120 120 0 15.4000 131.800 3 48 985 15.4000 131.600 STS 50 985 13 269
1994287N14156 1994 102 WP MM TERESA 1994-10-18 21:00:00 TS 15.4117 130.958 main 693 630 PPPP__________ WP341994 15.5998 130.793 57 -1 15.2850 131.073 4 52 987 0 9 120 120 15.3774 131.080 3 53 982 15.3848 130.885 STS 52 982 14 272
1994287N14156 1994 102 WP MM TERESA 1994-10-19 00:00:00 TS 15.4500 130.225 55 985 tokyo main 627 568 OOOO__________ jtwc_wp WP341994 15.6000 130.100 60 0 15.4000 130.300 4 55 985 9 30 30 9 120 120 0 15.4000 130.300 3 58 980 15.4000 130.200 STS 55 980 14 273
1994287N14156 1994 102 WP MM TERESA 1994-10-19 03:00:00 TS 15.4874 129.496 main 568 506 PPPP__________ WP341994 15.5498 129.435 60 -1 15.4574 129.535 4 57 982 9 30 30 9 120 120 15.5002 129.470 3 58 980 15.4422 129.543 STS 60 975 14 273
1994287N14156 1994 102 WP MM TERESA 1994-10-19 06:00:00 TS 15.5250 128.800 60 980 tokyo main 506 446 OOOO__________ jtwc_wp WP341994 15.5000 128.800 XX 60 -5 15.5000 128.800 4 60 980 9 30 30 9 120 120 0 15.6000 128.700 3 58 980 15.5000 128.900 T 65 970 13 273
1994287N14156 1994 102 WP MM TERESA 1994-10-19 09:00:00 TS 15.5517 128.159 main 450 393 PPPP__________ WP341994 15.4998 128.185 XX 62 -5 15.5499 128.113 4 62 977 9 35 35 9 125 125 15.6071 128.105 3 63 975 15.5499 128.235 T 67 967 12 272
1994287N14156 1994 102 WP MM TERESA 1994-10-19 12:00:00 TS 15.5750 127.575 65 975 tokyo main 393 347 OOOO__________ jtwc_wp WP341994 15.5000 127.600 XX 65 -5 15.6000 127.500 5 65 975 9 40 40 9 130 130 0 15.6000 127.600 4 68 970 15.6000 127.600 T 70 965 11 273
1994287N14156 1994 102 WP MM TERESA 1994-10-19 15:00:00 TS 15.6091 127.041 main 338 303 PPPP__________ WP341994 15.4499 127.035 XX 67 -5 15.6647 126.985 5 67 970 9 50 50 9 145 130 15.6572 127.108 4 68 967 15.6647 127.035 T 75 960 10 273
1994287N14156 1994 102 WP MM TERESA 1994-10-19 18:00:00 TS 15.6250 126.525 70 965 tokyo main 295 255 OOOO__________ jtwc_wp WP341994 15.4000 126.500 XX 70 -5 15.7000 126.500 5 70 965 9 60 60 7 160 130 0 15.7000 126.600 4 68 965 15.7000 126.500 T 80 955 10 269
1994287N14156 1994 102 WP MM TERESA 1994-10-19 21:00:00 TS 15.5968 125.971 main 255 220 PPPP__________ WP341994 15.3998 125.993 XX 72 -5 15.6650 125.950 5 75 960 9 70 70 7 180 140 15.6576 126.000 4 72 962 15.6649 125.942 T 80 955 11 266
1994287N14156 1994 102 WP MM TERESA 1994-10-20 00:00:00 TS 15.5500 125.425 80 955 tokyo main 214 179 OOOO__________ jtwc_wp WP341994 15.4000 125.500 XX 75 -5 15.6000 125.400 5 80 955 9 80 80 7 200 150 0 15.6000 125.400 4 77 960 15.6000 125.400 T 80 955 10 266
1994287N14156 1994 102 WP MM TERESA 1994-10-20 03:00:00 TS 15.5181 124.901 main 179 168 PPPP__________ WP341994 15.3574 124.992 XX 77 -5 15.5500 124.870 5 80 955 9 80 80 7 220 165 15.6075 124.855 4 77 960 15.5574 124.885 T 80 955 10 266
1994287N14156 1994 102 WP MM TERESA 1994-10-20 06:00:00 TS 15.4750 124.425 80 955 tokyo main 168 156 OOOO__________ jtwc_wp WP341994 15.3000 124.500 80 -1 15.5000 124.400 5 80 955 9 80 80 7 240 180 0 15.6000 124.400 4 77 960 15.5000 124.400 T 80 955 8 263
1994287N14156 1994 102 WP MM TERESA 1994-10-20 09:00:00 TS 15.4092 124.028 main 157 149 PPPP__________ WP341994 15.2574 124.043 80 -1 15.4573 124.035 5 80 955 9 80 80 7 240 180 15.5147 124.100 4 77 960 15.4074 123.935 T 80 955 8 259
1994287N14156 1994 102 WP MM TERESA 1994-10-20 12:00:00 TS 15.3250 123.650 80 955 tokyo main 150 116 OOOO__________ jtwc_wp WP341994 15.2000 123.600 80 -1 15.4000 123.700 5 80 955 9 80 80 7 240 180 0 15.4000 123.800 4 77 960 15.3000 123.500 T 80 955 8 258
1994287N14156 1994 102 WP MM TERESA 1994-10-20 15:00:00 TS 15.2381 123.209 main 116 100 PPPP__________ WP341994 15.1149 123.150 80 -1 15.3225 123.300 5 77 957 9 75 75 7 240 180 15.3077 123.300 4 77 960 15.2074 123.085 T 77 957 9 257
1994287N14156 1994 102 WP MM TERESA 1994-10-20 18:00:00 TS 15.1250 122.775 75 960 tokyo main 100 82 OOOO__________ jtwc_wp WP341994 15.0000 122.700 80 -1 15.2000 122.900 5 75 960 9 70 70 7 240 180 0 15.2000 122.800 4 77 960 15.1000 122.700 T 75 960 8 251
1994287N14156 1994 102 WP MM TERESA 1994-10-20 21:00:00 TS 14.9811 122.418 main 82 44 PPPP__________ WP341994 14.8649 122.250 77 -1 15.0223 122.565 5 72 965 9 65 65 7 240 180 15.0797 122.500 4 77 960 14.9573 122.358 T 72 962 8 245
1994287N14156 1994 102 WP MM TERESA 1994-10-21 00:00:00 TS 14.8000 122.050 70 970 tokyo main 44 0 OOOO__________ jtwc_wp WP341994 14.7000 121.800 75 -1 14.8000 122.200 5 70 970 9 60 60 7 240 180 0 14.9000 122.200 4 77 960 14.8000 122.000 T 70 965 9 243
1994287N14156 1994 102 WP MM TERESA 1994-10-21 03:00:00 TS 14.5787 121.603 main 0 0 PPPP__________ WP341994 14.5074 121.350 70 -1 14.5499 121.737 5 65 975 9 50 50 7 220 180 14.6075 121.745 4 72 965 14.6499 121.580 T 65 970 10 244
1994287N14156 1994 102 WP MM TERESA 1994-10-21 06:00:00 TS 14.3500 121.100 60 980 tokyo main 0 0 OOOO__________ jtwc_wp WP341994 14.3000 120.900 65 -1 14.3000 121.200 4 60 980 9 40 40 7 200 180 0 14.3000 121.200 4 68 970 14.5000 121.100 STS 60 975 11 248
1994287N14156 1994 102 WP MM TERESA 1994-10-21 09:00:00 TS 14.1625 120.561 main 0 0 PPPP__________ WP341994 14.0999 120.458 60 -1 14.1000 120.615 4 57 982 9 30 30 7 180 150 14.0925 120.615 4 63 972 14.3575 120.558 STS 57 977 11 251
1994287N14156 1994 102 WP MM TERESA 1994-10-21 12:00:00 TS 13.9750 120.000 55 985 tokyo main 64 64 OOOO__________ jtwc_wp WP341994 13.9000 120.000 55 -1 13.9000 120.000 4 55 985 9 20 20 7 160 120 0 13.9000 120.000 3 58 975 14.2000 120.000 STS 55 980 12 249
1994287N14156 1994 102 WP MM TERESA 1994-10-21 15:00:00 TS 13.7537 119.439 main 107 102 PPPP__________ WP341994 13.6999 119.508 52 -1 13.6500 119.377 4 55 985 9 20 20 7 160 110 13.6500 119.377 3 53 980 14.0148 119.493 STS 52 982 12 247
1994287N14156 1994 102 WP MM TERESA 1994-10-21 18:00:00 TS 13.5250 118.900 55 985 tokyo main 151 151 OOOO__________ jtwc_wp WP341994 13.5000 119.000 50 -1 13.4000 118.800 4 55 985 9 20 20 7 160 100 0 13.4000 118.800 3 48 985 13.8000 119.000 STS 50 985 11 246
1994287N14156 1994 102 WP MM TERESA 1994-10-21 21:00:00 TS 13.3123 118.416 main 205 205 PPPP__________ WP341994 13.2999 118.500 50 -1 13.1923 118.335 4 55 985 9 20 20 7 160 110 13.1998 118.328 3 48 985 13.5574 118.500 STS 50 985 10 245
1994287N14156 1994 102 WP MM TERESA 1994-10-22 00:00:00 TS 13.1000 117.950 55 985 tokyo main 251 251 OOOO__________ jtwc_wp WP341994 13.1000 118.000 50 -1 13.0000 117.900 4 55 985 9 20 20 7 160 120 0 13.0000 117.900 3 48 985 13.3000 118.000 STS 50 985 10 245
1994287N14156 1994 102 WP MM TERESA 1994-10-22 03:00:00 TS 12.8768 117.463 main 281 281 PPPP__________ WP341994 12.9074 117.493 52 -1 12.8000 117.400 4 55 985 9 20 20 7 160 120 12.7424 117.457 3 48 985 13.0574 117.500 STS 50 985 11 245
1994287N14156 1994 102 WP MM TERESA 1994-10-22 06:00:00 TS 12.6500 116.975 55 985 tokyo main 310 304 OOOO__________ jtwc_wp WP341994 12.7000 117.000 55 -1 12.6000 116.900 4 55 985 9 20 20 7 160 120 0 12.5000 117.000 3 48 985 12.8000 117.000 STS 50 985 11 245
1994287N14156 1994 102 WP MM TERESA 1994-10-22 09:00:00 TS 12.4306 116.487 main 343 343 PPPP__________ WP341994 12.4574 116.535 57 -1 12.4075 116.428 4 57 982 9 30 30 7 180 135 12.3501 116.485 3 48 985 12.5074 116.500 STS 52 982 10 244
1994287N14156 1994 102 WP MM TERESA 1994-10-22 12:00:00 TS 12.2000 116.025 60 980 tokyo main 385 382 OOOO__________ jtwc_wp WP341994 12.2000 116.100 60 -1 12.2000 116.000 4 60 980 9 40 40 7 200 150 0 12.2000 116.000 3 48 985 12.2000 116.000 STS 55 980 10 240
1994287N14156 1994 102 WP MM TERESA 1994-10-22 15:00:00 TS 11.9356 115.603 main 386 384 PPPP__________ WP341994 11.9424 115.685 60 -1 11.9499 115.628 4 60 980 9 40 40 7 220 165 11.9574 115.620 3 53 982 11.8925 115.478 STS 55 980 9 236
1994287N14156 1994 102 WP MM TERESA 1994-10-22 18:00:00 TS 11.6750 115.225 60 980 tokyo main 399 391 OOOO__________ jtwc_wp WP341994 11.7000 115.300 60 -1 11.7000 115.300 4 60 980 9 40 40 6 240 180 0 11.7000 115.300 3 58 980 11.6000 115.000 STS 55 980 9 235
1994287N14156 1994 102 WP MM TERESA 1994-10-22 21:00:00 TS 11.4493 114.881 main 399 399 PPPP__________ WP341994 11.4925 114.935 60 -1 11.4850 114.985 4 60 980 9 40 40 6 255 190 11.4850 114.985 3 58 980 11.3349 114.620 STS 57 977 8 236
1994287N14156 1994 102 WP MM TERESA 1994-10-23 00:00:00 TS 11.2500 114.575 60 980 tokyo main 416 409 OOOO__________ jtwc_wp WP341994 11.3000 114.600 60 -1 11.3000 114.700 4 60 980 9 40 40 6 270 200 0 11.3000 114.700 3 58 980 11.1000 114.300 STS 60 975 7 236
1994287N14156 1994 102 WP MM TERESA 1994-10-23 03:00:00 TS 11.0525 114.293 main 428 422 PPPP__________ WP341994 11.0849 114.300 60 -1 11.1275 114.443 4 62 977 9 50 50 6 270 220 11.1275 114.443 3 58 980 10.8700 113.985 STS 60 975 6 237
1994287N14156 1994 102 WP MM TERESA 1994-10-23 06:00:00 TS 10.9000 114.025 65 975 tokyo main 444 444 OOOO__________ jtwc_wp WP341994 10.9000 114.000 60 -1 11.0000 114.200 5 65 975 9 60 60 6 270 240 0 11.0000 114.200 3 58 980 10.7000 113.700 STS 60 975 6 246
1994287N14156 1994 102 WP MM TERESA 1994-10-23 09:00:00 TS 10.8169 113.746 main 465 465 PPPP__________ WP341994 10.7775 113.650 62 -1 10.9350 113.950 5 65 975 9 60 60 6 270 255 10.9350 113.950 3 58 980 10.6200 113.435 STS 57 977 6 257
1994287N14156 1994 102 WP MM TERESA 1994-10-23 12:00:00 TS 10.7750 113.475 65 975 tokyo main 474 446 OOOO__________ jtwc_wp WP341994 10.7000 113.300 65 -1 10.9000 113.700 5 65 975 9 60 60 9 270 270 0 10.9000 113.700 3 58 980 10.6000 113.200 STS 55 980 5 260
1994287N14156 1994 102 WP MM TERESA 1994-10-23 15:00:00 TS 10.7244 113.219 main 446 425 PPPP__________ WP341994 10.6275 112.985 65 -1 10.8425 113.450 5 65 975 9 60 60 9 270 270 10.8425 113.450 3 58 980 10.5850 112.993 STS 55 980 5 261
1994287N14156 1994 102 WP MM TERESA 1994-10-23 18:00:00 TS 10.7000 112.975 65 975 tokyo main 425 394 OOOO__________ jtwc_wp WP341994 10.6000 112.700 65 -1 10.8000 113.200 5 65 975 9 60 60 9 270 270 0 10.8000 113.200 3 58 980 10.6000 112.800 STS 55 980 5 269
1994287N14156 1994 102 WP MM TERESA 1994-10-23 21:00:00 TS 10.7175 112.728 main 394 374 PPPP__________ WP341994 10.6425 112.443 65 -1 10.7925 112.935 5 67 972 9 70 70 9 270 270 10.7925 112.935 3 63 975 10.6425 112.600 STS 55 980 5 276
1994287N14156 1994 102 WP MM TERESA 1994-10-24 00:00:00 TS 10.7500 112.500 70 970 tokyo main 370 349 OOOO__________ jtwc_wp WP341994 10.7000 112.200 65 -1 10.8000 112.700 5 70 970 9 80 80 9 270 270 0 10.8000 112.700 4 68 970 10.7000 112.400 STS 55 980 4 275
1994287N14156 1994 102 WP MM TERESA 1994-10-24 03:00:00 TS 10.7550 112.307 main 349 329 PPPP__________ WP341994 10.7000 111.942 65 -1 10.7850 112.542 5 70 970 9 80 80 9 270 270 10.7850 112.542 4 68 970 10.7500 112.200 STS 55 980 4 274
1994287N14156 1994 102 WP MM TERESA 1994-10-24 06:00:00 TS 10.7750 112.125 70 970 tokyo main 329 309 OOOO__________ jtwc_wp WP341994 10.7000 111.700 65 -1 10.8000 112.400 5 70 970 9 80 80 9 270 270 0 10.8000 112.400 4 68 970 10.8000 112.000 STS 55 980 4 284
1994287N14156 1994 102 WP MM TERESA 1994-10-24 09:00:00 TS 10.8500 111.931 main 309 284 PPPP__________ WP341994 10.7500 111.493 65 -1 10.9000 112.215 5 67 972 9 70 70 9 285 255 10.9000 112.215 4 63 975 10.8500 111.800 STS 55 980 4 291
1994287N14156 1994 102 WP MM TERESA 1994-10-24 12:00:00 TS 10.9250 111.725 65 975 tokyo main 284 260 OOOO__________ jtwc_wp WP341994 10.8000 111.300 65 -1 11.0000 112.000 5 65 975 9 60 60 2 300 240 0 11.0000 112.000 3 58 980 10.9000 111.600 STS 55 980 4 284
1994287N14156 1994 102 WP MM TERESA 1994-10-24 15:00:00 TS 10.9506 111.504 main 260 240 PPPP__________ WP341994 10.8000 111.100 62 -1 11.0225 111.757 5 65 975 9 60 60 2 285 225 11.0225 111.757 3 58 980 10.9575 111.400 STS 55 980 4 273
1994287N14156 1994 102 WP MM TERESA 1994-10-24 18:00:00 TS 10.9500 111.275 65 975 tokyo main 240 225 OOOO__________ jtwc_wp WP341994 10.8000 110.900 60 -1 11.0000 111.500 5 65 975 9 60 60 2 270 210 0 11.0000 111.500 3 58 980 11.0000 111.200 STS 55 980 4 269
1994287N14156 1994 102 WP MM TERESA 1994-10-24 21:00:00 TS 10.9431 111.052 main 225 196 PPPP__________ WP341994 10.8500 110.700 60 -1 10.9575 111.250 5 62 977 9 55 55 2 255 195 10.9575 111.250 3 58 980 11.0075 111.007 STS 55 980 4 267
1994287N14156 1994 102 WP MM TERESA 1994-10-25 00:00:00 TS 10.9250 110.825 60 980 tokyo main 196 177 OOOO__________ jtwc_wp WP341994 10.9000 110.500 60 -1 10.9000 111.000 4 60 980 9 50 50 2 240 180 0 10.9000 111.000 3 58 980 11.0000 110.800 STS 55 980 5 264
1994287N14156 1994 102 WP MM TERESA 1994-10-25 03:00:00 TS 10.8981 110.586 main 177 158 PPPP__________ WP341994 10.9075 110.300 57 -1 10.8425 110.742 4 57 982 9 45 45 2 225 165 10.8425 110.742 3 58 980 11.0000 110.558 STS 52 982 5 264
1994287N14156 1994 102 WP MM TERESA 1994-10-25 06:00:00 TS 10.8750 110.350 55 985 tokyo main 158 132 OOOO__________ jtwc_wp WP341994 10.9000 110.100 55 -1 10.8000 110.500 4 55 985 9 40 40 2 210 150 0 10.8000 110.500 3 58 980 11.0000 110.300 STS 50 985 5 267
1994287N14156 1994 102 WP MM TERESA 1994-10-25 09:00:00 TS 10.8731 110.126 main 132 113 PPPP__________ WP341994 10.9075 109.900 55 -1 10.7925 110.285 4 52 987 9 2 195 135 10.7925 110.285 3 53 982 11.0000 110.035 STS 45 988 4 270
1994287N14156 1994 102 WP MM TERESA 1994-10-25 12:00:00 TS 10.8750 109.925 50 990 tokyo main 113 103 OOOO__________ jtwc_wp WP341994 10.9000 109.700 55 -1 10.8000 110.100 4 50 990 0 2 180 120 0 10.8000 110.100 3 48 985 11.0000 109.800 TS 40 992 4 268
1994287N14156 1994 102 WP MM TERESA 1994-10-25 15:00:00 TS 10.8606 109.755 main 103 93 PPPP__________ WP341994 10.8575 109.507 52 -1 10.7925 109.942 4 47 992 0 2 170 120 10.7925 109.942 3 43 989 11.0000 109.628 TS 37 994 3 264
1994287N14156 1994 102 WP MM TERESA 1994-10-25 18:00:00 TS 10.8400 109.607 45 994 tokyo main 93 86 OOOO__________ jtwc_wp WP341994 10.8000 109.300 50 -1 10.8000 109.800 3 45 994 0 2 160 120 0 10.8000 109.800 2 38 994 11.0000 109.500 TS 35 996 3 266
1994287N14156 1994 102 WP MM TERESA 1994-10-25 21:00:00 TS 10.8386 109.444 main 80 74 PPPP__________ WP341994 10.7500 109.058 47 -1 10.8425 109.650 3 40 996 0 2 150 105 10.8425 109.650 2 38 994 11.0000 109.395 TS 32 998 3 271
1994287N14156 1994 102 WP MM TERESA 1994-10-26 00:00:00 TS 10.8462 109.269 35 998 tokyo main 74 62 OOOO__________ jtwc_wp WP341994 10.7000 108.800 45 -1 10.9000 109.500 3 35 998 0 3 140 90 0 10.9000 109.500 2 38 995 11.0000 109.300 TD 30 1000 4 272
1994287N14156 1994 102 WP MM TERESA 1994-10-26 03:00:00 TS 10.8500 109.081 main 62 40 PPP___________ WP341994 10.6500 108.558 40 -1 10.9500 109.342 3 35 999 0 3 130 90 10.9500 109.342 2 33 998 TD 4 271
1994287N14156 1994 102 WP MM TERESA 1994-10-26 06:00:00 TS 10.8545 108.873 35 1000 tokyo main 40 33 OOO___________ jtwc_wp WP341994 10.6000 108.300 35 -1 11.0000 109.200 3 35 1000 0 3 120 90 0 11.0000 109.200 1 29 1002 4 269
1994287N14156 1994 102 WP MM TERESA 1994-10-26 09:00:00 TS 10.8440 108.661 main 44 15 PPP___________ WP341994 10.5350 108.015 30 -1 11.0500 109.092 3 1001 0 3 11.0500 109.090 1 26 1004 5 264
1994287N14156 1994 102 WP MM TERESA 1994-10-26 12:00:00 TS 10.8000 108.350 1002 tokyo main 15 0 OOO___________ jtwc_wp WP341994 10.5000 107.700 25 -1 11.1000 109.000 2 1002 0 0 0 11.1000 109.000 1 23 1006 8 262
1994287N14156 1994 102 WP MM TERESA 1994-10-26 15:00:00 TS 10.7400 107.878 main 0 0 PP____________ WP341994 10.5350 107.365 22 -1 11.1500 108.903 2 1004 0 0 1 9 267
1994287N14156 1994 102 WP MM TERESA 1994-10-26 18:00:00 TS 10.7500 107.450 1006 tokyo main 0 0 OO____________ jtwc_wp WP341994 10.6000 107.000 20 -1 11.2000 108.800 2 1006 0 0 0 13 266
1994287N14156 1994 102 WP MM TERESA 1994-10-26 21:00:00 NR 10.6551 106.608 main 0 0 P_____________ WP341994 10.6551 106.608 17 -1 2 0 0 12 268
1994287N14156 1994 102 WP MM TERESA 1994-10-27 00:00:00 NR 10.7000 106.200 main 0 O_____________ jtwc_wp WP341994 10.7000 106.200 15 -1 8 276

Digital Typhoon Data and Search

About IBTrACS Database

This database is a web-friendly format of International Best Track Archive for Climate Stewardship (IBTrACS), a global best track data archive curated by NOAA dating back to 1842.

Updated: 2021-12-06